X  Schlie├čen METAR Luftfahrt Wetterdaten     EDJA Memmingen Allgau Airport
Temperatur
48°F Temperatur
45°F Taupunkt
87% Feuchtigkeit



Wind
3 MPS
5 KM/S
1 M/S
3 KTS



230°
SW
Aktuelle Wetterlage

Klar Klar
Luftdruck 1017.95 (hPa) - 30.06 (inHg)
Sichtweite 6 (Meile) - 9.7 (Km)
Flughafen
Flughafen Code EDJA

Position : Memmingen Allgau Airport
Entfernung: 50 (mi)

Metar:
EDJA 130350Z 23003KT CAVOK 09/07 Q1018

Zeit: 13-06-2024 05:50 CEST